sensor_id;sensor_type;location;lat;lon;timestamp;temperature;humidity
18073;DHT22;9161;47.348;9.648;2022-12-18T00:03:46;-4.40;99.90
18073;DHT22;9161;47.348;9.648;2022-12-18T00:08:30;-4.60;99.90
18073;DHT22;9161;47.348;9.648;2022-12-18T00:13:14;-4.70;99.90
18073;DHT22;9161;47.348;9.648;2022-12-18T00:17:58;-4.80;99.90
18073;DHT22;9161;47.348;9.648;2022-12-18T00:22:43;-5.00;99.90
18073;DHT22;9161;47.348;9.648;2022-12-18T00:27:26;-5.20;99.90
18073;DHT22;9161;47.348;9.648;2022-12-18T00:32:10;-5.20;99.90
18073;DHT22;9161;47.348;9.648;2022-12-18T00:36:54;-5.00;99.90
18073;DHT22;9161;47.348;9.648;2022-12-18T00:41:39;-5.10;99.90
18073;DHT22;9161;47.348;9.648;2022-12-18T00:46:40;-5.20;99.90
18073;DHT22;9161;47.348;9.648;2022-12-18T00:51:24;-5.10;99.90
18073;DHT22;9161;47.348;9.648;2022-12-18T00:56:07;-5.00;99.90
18073;DHT22;9161;47.348;9.648;2022-12-18T01:00:52;-4.70;99.90
18073;DHT22;9161;47.348;9.648;2022-12-18T01:05:39;-4.50;99.90
18073;DHT22;9161;47.348;9.648;2022-12-18T01:10:23;-4.50;99.90
18073;DHT22;9161;47.348;9.648;2022-12-18T01:15:09;-4.50;99.90
18073;DHT22;9161;47.348;9.648;2022-12-18T01:19:54;-4.50;99.90
18073;DHT22;9161;47.348;9.648;2022-12-18T01:24:37;-4.40;99.90
18073;DHT22;9161;47.348;9.648;2022-12-18T01:29:21;-4.40;99.90
18073;DHT22;9161;47.348;9.648;2022-12-18T01:34:05;-4.20;99.90
18073;DHT22;9161;47.348;9.648;2022-12-18T01:38:51;-4.10;99.90
18073;DHT22;9161;47.348;9.648;2022-12-18T01:43:47;-4.20;99.90
18073;DHT22;9161;47.348;9.648;2022-12-18T01:48:31;-4.20;99.90
18073;DHT22;9161;47.348;9.648;2022-12-18T01:53:17;-4.20;99.90
18073;DHT22;9161;47.348;9.648;2022-12-18T01:58:03;-4.10;99.90
18073;DHT22;9161;47.348;9.648;2022-12-18T02:02:48;-4.10;99.90
18073;DHT22;9161;47.348;9.648;2022-12-18T02:07:40;-4.10;99.90
18073;DHT22;9161;47.348;9.648;2022-12-18T02:12:30;-4.10;99.90
18073;DHT22;9161;47.348;9.648;2022-12-18T02:17:21;-4.00;99.90
18073;DHT22;9161;47.348;9.648;2022-12-18T02:22:15;-4.00;99.90
18073;DHT22;9161;47.348;9.648;2022-12-18T02:27:04;-4.00;99.90
18073;DHT22;9161;47.348;9.648;2022-12-18T02:31:52;-3.90;99.90
18073;DHT22;9161;47.348;9.648;2022-12-18T02:36:40;-3.90;99.90
18073;DHT22;9161;47.348;9.648;2022-12-18T02:41:24;-3.90;99.90
18073;DHT22;9161;47.348;9.648;2022-12-18T02:46:32;-3.90;99.90
18073;DHT22;9161;47.348;9.648;2022-12-18T02:51:21;-4.00;99.90
18073;DHT22;9161;47.348;9.648;2022-12-18T02:56:11;-4.20;99.90
18073;DHT22;9161;47.348;9.648;2022-12-18T03:01:00;-4.30;99.90
18073;DHT22;9161;47.348;9.648;2022-12-18T03:05:49;-4.20;99.90
18073;DHT22;9161;47.348;9.648;2022-12-18T03:10:38;-4.20;99.90
18073;DHT22;9161;47.348;9.648;2022-12-18T03:15:24;-4.10;99.90
18073;DHT22;9161;47.348;9.648;2022-12-18T03:20:12;-3.90;99.90
18073;DHT22;9161;47.348;9.648;2022-12-18T03:25:01;-3.80;99.90
18073;DHT22;9161;47.348;9.648;2022-12-18T03:29:48;-3.70;99.90
18073;DHT22;9161;47.348;9.648;2022-12-18T03:34:36;-3.70;99.90
18073;DHT22;9161;47.348;9.648;2022-12-18T03:39:21;-3.60;99.90
18073;DHT22;9161;47.348;9.648;2022-12-18T03:44:10;-3.80;99.90
18073;DHT22;9161;47.348;9.648;2022-12-18T03:48:59;-3.90;99.90
18073;DHT22;9161;47.348;9.648;2022-12-18T03:53:48;-3.70;99.90
18073;DHT22;9161;47.348;9.648;2022-12-18T03:58:36;-3.70;99.90
18073;DHT22;9161;47.348;9.648;2022-12-18T04:03:25;-3.60;99.90
18073;DHT22;9161;47.348;9.648;2022-12-18T04:08:09;-3.50;99.90
18073;DHT22;9161;47.348;9.648;2022-12-18T04:12:55;-3.40;99.90
18073;DHT22;9161;47.348;9.648;2022-12-18T04:17:46;-3.40;99.90
18073;DHT22;9161;47.348;9.648;2022-12-18T04:22:32;-3.30;99.90
18073;DHT22;9161;47.348;9.648;2022-12-18T04:27:15;-3.30;99.90
18073;DHT22;9161;47.348;9.648;2022-12-18T04:31:59;-3.20;99.90
18073;DHT22;9161;47.348;9.648;2022-12-18T04:36:42;-3.20;99.90
18073;DHT22;9161;47.348;9.648;2022-12-18T04:41:27;-3.20;99.90
18073;DHT22;9161;47.348;9.648;2022-12-18T04:46:11;-3.20;99.90
18073;DHT22;9161;47.348;9.648;2022-12-18T04:50:54;-3.20;99.90
18073;DHT22;9161;47.348;9.648;2022-12-18T04:55:38;-3.20;99.90
18073;DHT22;9161;47.348;9.648;2022-12-18T05:00:23;-3.20;99.90
18073;DHT22;9161;47.348;9.648;2022-12-18T05:05:07;-3.20;99.90
18073;DHT22;9161;47.348;9.648;2022-12-18T05:09:51;-3.10;99.90
18073;DHT22;9161;47.348;9.648;2022-12-18T05:14:34;-3.10;99.90
18073;DHT22;9161;47.348;9.648;2022-12-18T05:19:20;-3.10;99.90
18073;DHT22;9161;47.348;9.648;2022-12-18T05:24:05;-3.10;99.90
18073;DHT22;9161;47.348;9.648;2022-12-18T05:28:48;-3.10;99.90
18073;DHT22;9161;47.348;9.648;2022-12-18T05:33:34;-3.10;99.90
18073;DHT22;9161;47.348;9.648;2022-12-18T05:38:20;-3.10;99.90
18073;DHT22;9161;47.348;9.648;2022-12-18T05:43:03;-3.10;99.90
18073;DHT22;9161;47.348;9.648;2022-12-18T05:47:47;-3.10;99.90
18073;DHT22;9161;47.348;9.648;2022-12-18T05:52:30;-3.10;99.90
18073;DHT22;9161;47.348;9.648;2022-12-18T05:57:15;-3.10;99.90
18073;DHT22;9161;47.348;9.648;2022-12-18T06:01:59;-3.10;99.90
18073;DHT22;9161;47.348;9.648;2022-12-18T06:06:42;-3.20;99.90
18073;DHT22;9161;47.348;9.648;2022-12-18T06:11:26;-3.30;99.90
18073;DHT22;9161;47.348;9.648;2022-12-18T06:16:11;-3.30;99.90
18073;DHT22;9161;47.348;9.648;2022-12-18T06:20:55;-3.20;99.90
18073;DHT22;9161;47.348;9.648;2022-12-18T06:25:39;-3.20;99.90
18073;DHT22;9161;47.348;9.648;2022-12-18T06:30:23;-3.20;99.90
18073;DHT22;9161;47.348;9.648;2022-12-18T06:35:08;-3.20;99.90
18073;DHT22;9161;47.348;9.648;2022-12-18T06:39:52;-3.20;99.90
18073;DHT22;9161;47.348;9.648;2022-12-18T06:44:35;-3.30;99.90
18073;DHT22;9161;47.348;9.648;2022-12-18T06:49:19;-3.30;99.90
18073;DHT22;9161;47.348;9.648;2022-12-18T06:54:09;-3.30;99.90
18073;DHT22;9161;47.348;9.648;2022-12-18T06:58:53;-3.30;99.90
18073;DHT22;9161;47.348;9.648;2022-12-18T07:03:37;-3.30;99.90
18073;DHT22;9161;47.348;9.648;2022-12-18T07:08:22;-3.30;99.90
18073;DHT22;9161;47.348;9.648;2022-12-18T07:13:06;-3.30;99.90
18073;DHT22;9161;47.348;9.648;2022-12-18T07:17:50;-3.30;99.90
18073;DHT22;9161;47.348;9.648;2022-12-18T07:22:33;-3.30;99.90
18073;DHT22;9161;47.348;9.648;2022-12-18T07:27:17;-3.20;99.90
18073;DHT22;9161;47.348;9.648;2022-12-18T07:32:02;-3.20;99.90
18073;DHT22;9161;47.348;9.648;2022-12-18T07:36:46;-3.10;99.90
18073;DHT22;9161;47.348;9.648;2022-12-18T07:41:30;-3.10;99.90
18073;DHT22;9161;47.348;9.648;2022-12-18T07:46:14;-3.00;99.90
18073;DHT22;9161;47.348;9.648;2022-12-18T07:51:00;-3.00;99.90
18073;DHT22;9161;47.348;9.648;2022-12-18T07:55:45;-2.90;99.90
18073;DHT22;9161;47.348;9.648;2022-12-18T08:00:49;-2.80;99.90
18073;DHT22;9161;47.348;9.648;2022-12-18T08:05:32;-2.70;99.90
18073;DHT22;9161;47.348;9.648;2022-12-18T08:10:19;-2.60;99.90
18073;DHT22;9161;47.348;9.648;2022-12-18T08:15:02;-2.60;99.90
18073;DHT22;9161;47.348;9.648;2022-12-18T08:19:47;-2.50;99.90
18073;DHT22;9161;47.348;9.648;2022-12-18T08:24:30;-2.30;99.90
18073;DHT22;9161;47.348;9.648;2022-12-18T08:29:16;-2.30;99.90
18073;DHT22;9161;47.348;9.648;2022-12-18T08:34:02;-2.30;99.90
18073;DHT22;9161;47.348;9.648;2022-12-18T08:38:47;-2.20;99.90
18073;DHT22;9161;47.348;9.648;2022-12-18T08:43:31;-2.10;99.90
18073;DHT22;9161;47.348;9.648;2022-12-18T08:48:33;-1.90;99.90
18073;DHT22;9161;47.348;9.648;2022-12-18T08:53:16;-1.90;99.90
18073;DHT22;9161;47.348;9.648;2022-12-18T08:58:00;-1.90;99.90
18073;DHT22;9161;47.348;9.648;2022-12-18T09:02:44;-1.80;99.90
18073;DHT22;9161;47.348;9.648;2022-12-18T09:07:30;-1.60;99.90
18073;DHT22;9161;47.348;9.648;2022-12-18T09:12:15;-1.60;99.90
18073;DHT22;9161;47.348;9.648;2022-12-18T09:16:59;-1.50;99.90
18073;DHT22;9161;47.348;9.648;2022-12-18T09:21:43;-1.30;99.90
18073;DHT22;9161;47.348;9.648;2022-12-18T09:26:31;-1.30;99.90
18073;DHT22;9161;47.348;9.648;2022-12-18T09:31:15;-1.20;99.90
18073;DHT22;9161;47.348;9.648;2022-12-18T09:36:04;-1.10;99.90
18073;DHT22;9161;47.348;9.648;2022-12-18T09:40:57;-1.00;99.90
18073;DHT22;9161;47.348;9.648;2022-12-18T09:45:47;-0.90;99.90
18073;DHT22;9161;47.348;9.648;2022-12-18T09:50:36;-0.60;99.90
18073;DHT22;9161;47.348;9.648;2022-12-18T09:55:25;-0.50;99.90
18073;DHT22;9161;47.348;9.648;2022-12-18T10:00:19;-0.30;99.90
18073;DHT22;9161;47.348;9.648;2022-12-18T10:05:07;-0.40;99.90
18073;DHT22;9161;47.348;9.648;2022-12-18T10:10:00;-0.30;99.90
18073;DHT22;9161;47.348;9.648;2022-12-18T10:14:50;-0.30;99.90
18073;DHT22;9161;47.348;9.648;2022-12-18T10:19:40;-0.30;99.90
18073;DHT22;9161;47.348;9.648;2022-12-18T10:24:38;-0.30;99.90
18073;DHT22;9161;47.348;9.648;2022-12-18T10:29:25;-0.10;99.90
18073;DHT22;9161;47.348;9.648;2022-12-18T10:34:09;-0.20;99.90
18073;DHT22;9161;47.348;9.648;2022-12-18T10:38:53;-0.10;99.90
18073;DHT22;9161;47.348;9.648;2022-12-18T10:43:39;-0.10;99.90
18073;DHT22;9161;47.348;9.648;2022-12-18T10:48:24;-0.10;99.90
18073;DHT22;9161;47.348;9.648;2022-12-18T10:53:18;-0.10;99.90
18073;DHT22;9161;47.348;9.648;2022-12-18T10:58:16;0.10;99.90
18073;DHT22;9161;47.348;9.648;2022-12-18T11:03:29;0.30;99.90
18073;DHT22;9161;47.348;9.648;2022-12-18T11:08:20;0.60;99.90
18073;DHT22;9161;47.348;9.648;2022-12-18T11:13:11;0.70;99.90
18073;DHT22;9161;47.348;9.648;2022-12-18T11:17:55;1.20;99.90
18073;DHT22;9161;47.348;9.648;2022-12-18T11:22:40;2.20;99.90
18073;DHT22;9161;47.348;9.648;2022-12-18T11:27:24;2.30;99.90
18073;DHT22;9161;47.348;9.648;2022-12-18T11:32:31;1.10;99.90
18073;DHT22;9161;47.348;9.648;2022-12-18T11:37:17;0.60;99.90
18073;DHT22;9161;47.348;9.648;2022-12-18T11:42:09;0.20;99.90
18073;DHT22;9161;47.348;9.648;2022-12-18T11:47:00;0.00;99.90
18073;DHT22;9161;47.348;9.648;2022-12-18T11:51:48;0.40;99.90
18073;DHT22;9161;47.348;9.648;2022-12-18T11:56:37;0.80;99.90
18073;DHT22;9161;47.348;9.648;2022-12-18T12:01:35;0.60;99.90
18073;DHT22;9161;47.348;9.648;2022-12-18T12:06:32;0.60;99.90
18073;DHT22;9161;47.348;9.648;2022-12-18T12:11:26;0.40;99.90
18073;DHT22;9161;47.348;9.648;2022-12-18T12:16:17;0.40;99.90
18073;DHT22;9161;47.348;9.648;2022-12-18T12:21:06;0.70;99.90
18073;DHT22;9161;47.348;9.648;2022-12-18T12:25:58;0.80;99.90
18073;DHT22;9161;47.348;9.648;2022-12-18T12:30:51;0.50;99.90
18073;DHT22;9161;47.348;9.648;2022-12-18T12:35:46;0.30;99.90
18073;DHT22;9161;47.348;9.648;2022-12-18T12:40:35;0.40;99.90
18073;DHT22;9161;47.348;9.648;2022-12-18T12:45:40;0.40;99.90
18073;DHT22;9161;47.348;9.648;2022-12-18T12:50:26;0.50;99.90
18073;DHT22;9161;47.348;9.648;2022-12-18T12:55:16;0.40;99.90
18073;DHT22;9161;47.348;9.648;2022-12-18T13:00:07;0.40;99.90
18073;DHT22;9161;47.348;9.648;2022-12-18T13:04:57;0.50;99.90
18073;DHT22;9161;47.348;9.648;2022-12-18T13:10:14;0.40;99.90
18073;DHT22;9161;47.348;9.648;2022-12-18T13:15:22;0.40;99.90
18073;DHT22;9161;47.348;9.648;2022-12-18T13:20:10;0.50;99.90
18073;DHT22;9161;47.348;9.648;2022-12-18T13:24:56;0.50;99.90
18073;DHT22;9161;47.348;9.648;2022-12-18T13:29:42;0.50;99.90
18073;DHT22;9161;47.348;9.648;2022-12-18T13:34:28;0.50;99.90
18073;DHT22;9161;47.348;9.648;2022-12-18T13:39:26;0.40;99.90
18073;DHT22;9161;47.348;9.648;2022-12-18T13:44:26;0.40;99.90
18073;DHT22;9161;47.348;9.648;2022-12-18T13:49:22;0.40;99.90
18073;DHT22;9161;47.348;9.648;2022-12-18T13:54:19;0.30;99.90
18073;DHT22;9161;47.348;9.648;2022-12-18T13:59:08;0.20;99.90
18073;DHT22;9161;47.348;9.648;2022-12-18T14:04:08;0.10;99.90
18073;DHT22;9161;47.348;9.648;2022-12-18T14:08:52;0.00;99.90
18073;DHT22;9161;47.348;9.648;2022-12-18T14:13:41;-0.10;99.90
18073;DHT22;9161;47.348;9.648;2022-12-18T14:18:29;-0.10;99.90
18073;DHT22;9161;47.348;9.648;2022-12-18T14:23:27;-0.20;99.90
18073;DHT22;9161;47.348;9.648;2022-12-18T14:28:14;-0.20;99.90
18073;DHT22;9161;47.348;9.648;2022-12-18T14:33:05;-0.30;99.90
18073;DHT22;9161;47.348;9.648;2022-12-18T14:37:49;-0.40;99.90
18073;DHT22;9161;47.348;9.648;2022-12-18T14:42:33;-0.60;99.90
18073;DHT22;9161;47.348;9.648;2022-12-18T14:47:17;-0.80;99.90
18073;DHT22;9161;47.348;9.648;2022-12-18T14:52:05;-0.90;99.90
18073;DHT22;9161;47.348;9.648;2022-12-18T14:56:54;-0.90;99.90
18073;DHT22;9161;47.348;9.648;2022-12-18T15:01:46;-1.00;99.90
18073;DHT22;9161;47.348;9.648;2022-12-18T15:06:33;-1.20;99.90
18073;DHT22;9161;47.348;9.648;2022-12-18T15:11:46;-1.30;99.90
18073;DHT22;9161;47.348;9.648;2022-12-18T15:16:32;-1.40;99.90
18073;DHT22;9161;47.348;9.648;2022-12-18T15:21:19;-1.40;99.90
18073;DHT22;9161;47.348;9.648;2022-12-18T15:26:06;-1.40;99.90
18073;DHT22;9161;47.348;9.648;2022-12-18T15:31:22;-1.40;99.90
18073;DHT22;9161;47.348;9.648;2022-12-18T15:36:10;-1.60;99.90
18073;DHT22;9161;47.348;9.648;2022-12-18T15:40:56;-1.70;99.90
18073;DHT22;9161;47.348;9.648;2022-12-18T15:45:43;-1.70;99.90
18073;DHT22;9161;47.348;9.648;2022-12-18T15:50:29;-1.80;99.90
18073;DHT22;9161;47.348;9.648;2022-12-18T15:55:17;-1.90;99.90
18073;DHT22;9161;47.348;9.648;2022-12-18T16:00:21;-1.90;99.90
18073;DHT22;9161;47.348;9.648;2022-12-18T16:05:13;-1.90;99.90
18073;DHT22;9161;47.348;9.648;2022-12-18T16:10:01;-1.90;99.90
18073;DHT22;9161;47.348;9.648;2022-12-18T16:14:46;-2.10;99.90
18073;DHT22;9161;47.348;9.648;2022-12-18T16:19:36;-2.00;99.90
18073;DHT22;9161;47.348;9.648;2022-12-18T16:24:22;-2.10;99.90
18073;DHT22;9161;47.348;9.648;2022-12-18T16:29:10;-2.00;99.90
18073;DHT22;9161;47.348;9.648;2022-12-18T16:34:10;-2.00;99.90
18073;DHT22;9161;47.348;9.648;2022-12-18T16:38:58;-2.00;99.90
18073;DHT22;9161;47.348;9.648;2022-12-18T16:43:43;-2.00;99.90
18073;DHT22;9161;47.348;9.648;2022-12-18T16:48:37;-2.10;99.90
18073;DHT22;9161;47.348;9.648;2022-12-18T16:53:23;-2.10;99.90
18073;DHT22;9161;47.348;9.648;2022-12-18T16:58:09;-2.30;99.90
18073;DHT22;9161;47.348;9.648;2022-12-18T17:03:00;-2.30;99.90
18073;DHT22;9161;47.348;9.648;2022-12-18T17:07:48;-2.40;99.90
18073;DHT22;9161;47.348;9.648;2022-12-18T17:12:33;-2.40;99.90
18073;DHT22;9161;47.348;9.648;2022-12-18T17:17:20;-2.50;99.90
18073;DHT22;9161;47.348;9.648;2022-12-18T17:22:05;-2.40;99.90
18073;DHT22;9161;47.348;9.648;2022-12-18T17:26:53;-2.40;99.90
18073;DHT22;9161;47.348;9.648;2022-12-18T17:31:40;-2.40;99.90
18073;DHT22;9161;47.348;9.648;2022-12-18T17:36:26;-2.40;99.90
18073;DHT22;9161;47.348;9.648;2022-12-18T17:41:13;-2.50;99.90
18073;DHT22;9161;47.348;9.648;2022-12-18T17:46:03;-2.50;99.90
18073;DHT22;9161;47.348;9.648;2022-12-18T17:50:50;-2.50;99.90
18073;DHT22;9161;47.348;9.648;2022-12-18T17:55:36;-2.50;99.90
18073;DHT22;9161;47.348;9.648;2022-12-18T18:00:20;-2.50;99.90
18073;DHT22;9161;47.348;9.648;2022-12-18T18:05:16;-2.50;99.90
18073;DHT22;9161;47.348;9.648;2022-12-18T18:10:03;-2.50;99.90
18073;DHT22;9161;47.348;9.648;2022-12-18T18:14:48;-2.30;99.90
18073;DHT22;9161;47.348;9.648;2022-12-18T18:19:33;-2.20;99.90
18073;DHT22;9161;47.348;9.648;2022-12-18T18:24:22;-2.10;99.90
18073;DHT22;9161;47.348;9.648;2022-12-18T18:29:10;-2.10;99.90
18073;DHT22;9161;47.348;9.648;2022-12-18T18:33:58;-2.10;99.90
18073;DHT22;9161;47.348;9.648;2022-12-18T18:38:46;-2.10;99.90
18073;DHT22;9161;47.348;9.648;2022-12-18T18:43:33;-2.10;99.90
18073;DHT22;9161;47.348;9.648;2022-12-18T18:48:19;-2.10;99.90
18073;DHT22;9161;47.348;9.648;2022-12-18T18:53:07;-2.10;99.90
18073;DHT22;9161;47.348;9.648;2022-12-18T18:57:53;-2.10;99.90
18073;DHT22;9161;47.348;9.648;2022-12-18T19:02:39;-2.10;99.90
18073;DHT22;9161;47.348;9.648;2022-12-18T19:07:25;-2.10;99.90
18073;DHT22;9161;47.348;9.648;2022-12-18T19:12:12;-2.20;99.90
18073;DHT22;9161;47.348;9.648;2022-12-18T19:17:14;-2.20;99.90
18073;DHT22;9161;47.348;9.648;2022-12-18T19:22:00;-2.20;99.90
18073;DHT22;9161;47.348;9.648;2022-12-18T19:26:46;-2.30;99.90
18073;DHT22;9161;47.348;9.648;2022-12-18T19:31:32;-2.30;99.90
18073;DHT22;9161;47.348;9.648;2022-12-18T19:36:19;-2.30;99.90
18073;DHT22;9161;47.348;9.648;2022-12-18T19:41:10;-2.30;99.90
18073;DHT22;9161;47.348;9.648;2022-12-18T19:45:56;-2.30;99.90
18073;DHT22;9161;47.348;9.648;2022-12-18T19:51:04;-2.20;99.90
18073;DHT22;9161;47.348;9.648;2022-12-18T19:55:50;-2.10;99.90
18073;DHT22;9161;47.348;9.648;2022-12-18T20:00:36;-2.20;99.90
18073;DHT22;9161;47.348;9.648;2022-12-18T20:05:21;-2.10;99.90
18073;DHT22;9161;47.348;9.648;2022-12-18T20:10:12;-2.10;99.90
18073;DHT22;9161;47.348;9.648;2022-12-18T20:15:05;-2.10;99.90
18073;DHT22;9161;47.348;9.648;2022-12-18T20:19:58;-2.10;99.90
18073;DHT22;9161;47.348;9.648;2022-12-18T20:24:57;-2.00;99.90
18073;DHT22;9161;47.348;9.648;2022-12-18T20:29:45;-2.00;99.90
18073;DHT22;9161;47.348;9.648;2022-12-18T20:34:30;-2.10;99.90
18073;DHT22;9161;47.348;9.648;2022-12-18T20:39:17;-2.00;99.90
18073;DHT22;9161;47.348;9.648;2022-12-18T20:44:02;-2.00;99.90
18073;DHT22;9161;47.348;9.648;2022-12-18T20:48:55;-2.10;99.90
18073;DHT22;9161;47.348;9.648;2022-12-18T20:53:40;-2.10;99.90
18073;DHT22;9161;47.348;9.648;2022-12-18T20:58:26;-2.10;99.90
18073;DHT22;9161;47.348;9.648;2022-12-18T21:03:11;-2.10;99.90
18073;DHT22;9161;47.348;9.648;2022-12-18T21:07:55;-2.10;99.90
18073;DHT22;9161;47.348;9.648;2022-12-18T21:12:40;-2.00;99.90
18073;DHT22;9161;47.348;9.648;2022-12-18T21:17:47;-2.00;99.90
18073;DHT22;9161;47.348;9.648;2022-12-18T21:22:31;-2.00;99.90
18073;DHT22;9161;47.348;9.648;2022-12-18T21:27:15;-2.00;99.90
18073;DHT22;9161;47.348;9.648;2022-12-18T21:31:59;-2.00;99.90
18073;DHT22;9161;47.348;9.648;2022-12-18T21:36:44;-2.00;99.90
18073;DHT22;9161;47.348;9.648;2022-12-18T21:41:29;-2.00;99.90
18073;DHT22;9161;47.348;9.648;2022-12-18T21:46:32;-2.00;99.90
18073;DHT22;9161;47.348;9.648;2022-12-18T21:51:16;-2.00;99.90
18073;DHT22;9161;47.348;9.648;2022-12-18T21:56:01;-2.00;99.90
18073;DHT22;9161;47.348;9.648;2022-12-18T22:00:45;-2.10;99.90
18073;DHT22;9161;47.348;9.648;2022-12-18T22:05:29;-2.20;99.90
18073;DHT22;9161;47.348;9.648;2022-12-18T22:10:13;-2.20;99.90
18073;DHT22;9161;47.348;9.648;2022-12-18T22:14:58;-2.10;99.90
18073;DHT22;9161;47.348;9.648;2022-12-18T22:19:41;-2.10;99.90
18073;DHT22;9161;47.348;9.648;2022-12-18T22:24:26;-2.10;99.90
18073;DHT22;9161;47.348;9.648;2022-12-18T22:29:13;-2.00;99.90
18073;DHT22;9161;47.348;9.648;2022-12-18T22:34:17;-2.00;99.90
18073;DHT22;9161;47.348;9.648;2022-12-18T22:39:06;-2.00;99.90
18073;DHT22;9161;47.348;9.648;2022-12-18T22:43:49;-1.90;99.90
18073;DHT22;9161;47.348;9.648;2022-12-18T22:48:33;-1.90;99.90
18073;DHT22;9161;47.348;9.648;2022-12-18T22:53:19;-1.90;99.90
18073;DHT22;9161;47.348;9.648;2022-12-18T22:58:03;-1.90;99.90
18073;DHT22;9161;47.348;9.648;2022-12-18T23:02:47;-1.90;99.90
18073;DHT22;9161;47.348;9.648;2022-12-18T23:07:36;-1.90;99.90
18073;DHT22;9161;47.348;9.648;2022-12-18T23:12:22;-1.90;99.90
18073;DHT22;9161;47.348;9.648;2022-12-18T23:17:05;-1.90;99.90
18073;DHT22;9161;47.348;9.648;2022-12-18T23:21:49;-1.90;99.90
18073;DHT22;9161;47.348;9.648;2022-12-18T23:26:35;-1.90;99.90
18073;DHT22;9161;47.348;9.648;2022-12-18T23:31:22;-1.80;99.90
18073;DHT22;9161;47.348;9.648;2022-12-18T23:36:07;-1.80;99.90
18073;DHT22;9161;47.348;9.648;2022-12-18T23:40:50;-1.80;99.90
18073;DHT22;9161;47.348;9.648;2022-12-18T23:45:37;-1.80;99.90
18073;DHT22;9161;47.348;9.648;2022-12-18T23:50:22;-1.80;99.90
18073;DHT22;9161;47.348;9.648;2022-12-18T23:55:11;-1.80;99.90
18073;DHT22;9161;47.348;9.648;2022-12-18T23:59:54;-1.70;99.90
